Time;durP1;ratioP1;P1;durP2;ratioP2;P2;SDS_P1;SDS_P2;PMS_P1;PMS_P2;Temp;Humidity;BMP_temperature;BMP_pressure;BME280_temperature;BME280_humidity;BME280_pressure;Samples;Min_cycle;Max_cycle;Signal;HPM_P1;HPM_P2
2021/04/26 00:02:15;;;;;;;9.33;2.90;;;7.30;99.90;;;;;;4972073;28;20651;-75
2021/04/26 00:04:40;;;;;;;13.80;3.33;;;7.30;99.90;;;;;;4987908;28;20202;-75
2021/04/26 00:07:06;;;;;;;15.10;2.87;;;7.20;99.90;;;;;;4987112;28;20188;-75
2021/04/26 00:09:32;;;;;;;9.63;3.00;;;7.10;99.90;;;;;;4971412;28;20193;-74
2021/04/26 00:11:58;;;;;;;11.57;2.90;;;7.10;99.90;;;;;;4974483;28;20250;-74
2021/04/26 00:14:23;;;;;;;14.53;3.10;;;7.10;99.90;;;;;;4973064;28;20653;-75
2021/04/26 00:16:49;;;;;;;10.27;2.90;;;7.00;99.90;;;;;;4975857;28;20190;-75
2021/04/26 00:19:15;;;;;;;10.67;2.90;;;6.90;99.90;;;;;;4976227;28;20288;-75
2021/04/26 00:21:40;;;;;;;14.97;3.40;;;6.90;99.90;;;;;;4976446;28;20798;-74
2021/04/26 00:24:07;;;;;;;15.53;3.50;;;7.00;99.90;;;;;;4979379;28;20183;-75
2021/04/26 00:26:32;;;;;;;12.73;3.20;;;7.00;99.90;;;;;;4976131;28;20191;-74
2021/04/26 00:28:58;;;;;;;18.43;3.23;;;6.90;99.90;;;;;;5006509;28;20191;-75
2021/04/26 00:31:24;;;;;;;13.07;3.03;;;6.70;99.90;;;;;;4973637;28;20195;-75
2021/04/26 00:33:50;;;;;;;11.47;3.33;;;6.70;99.90;;;;;;5005174;28;20225;-73
2021/04/26 00:36:15;;;;;;;13.93;3.07;;;6.80;99.90;;;;;;4976934;28;20211;-74
2021/04/26 00:38:41;;;;;;;13.43;3.27;;;6.80;99.90;;;;;;5003934;28;20188;-74
2021/04/26 00:41:07;;;;;;;14.37;3.47;;;6.50;99.90;;;;;;4986754;28;20554;-74
2021/04/26 00:43:32;;;;;;;12.57;3.00;;;6.60;99.90;;;;;;4973821;28;20204;-74
2021/04/26 00:45:58;;;;;;;13.07;3.30;;;6.70;99.90;;;;;;4971583;28;20544;-74
2021/04/26 00:48:24;;;;;;;16.43;3.63;;;6.70;99.90;;;;;;4972590;28;20188;-74
2021/04/26 00:50:49;;;;;;;14.57;3.43;;;6.60;99.90;;;;;;5001943;28;20744;-75
2021/04/26 00:53:16;;;;;;;11.37;3.40;;;6.60;99.90;;;;;;4969750;28;20677;-74
2021/04/26 00:55:43;;;;;;;14.43;3.47;;;6.60;99.90;;;;;;4971249;28;20210;-74
2021/04/26 00:58:09;;;;;;;12.70;3.03;;;6.50;99.90;;;;;;5002168;28;20226;-75
2021/04/26 01:00:36;;;;;;;11.80;3.13;;;6.50;99.90;;;;;;4972111;28;20176;-74
2021/04/26 01:03:02;;;;;;;13.33;3.20;;;6.60;99.90;;;;;;4985758;28;20180;-74
2021/04/26 01:05:32;;;;;;;13.90;3.60;;;6.60;99.90;;;;;;4985275;28;20175;-74
2021/04/26 01:08:00;;;;;;;14.80;3.13;;;6.60;99.90;;;;;;4986950;28;20194;-74
2021/04/26 01:10:50;;;;;;;8.50;2.97;;;6.50;99.90;;;;;;4971409;28;20808;-74
2021/04/26 01:13:39;;;;;;;13.20;3.13;;;6.50;99.90;;;;;;5001941;28;20201;-74
2021/04/26 01:16:18;;;;;;;16.47;3.93;;;6.50;99.90;;;;;;5002087;28;20628;-74
2021/04/26 01:18:53;;;;;;;14.93;3.63;;;6.60;99.90;;;;;;4971099;28;20258;-74
2021/04/26 01:21:40;;;;;;;11.83;2.90;;;6.50;99.90;;;;;;5000956;28;20226;-74
2021/04/26 01:24:36;;;;;;;11.67;3.50;;;6.40;99.90;;;;;;4970940;28;20171;-74
2021/04/26 01:27:02;;;;;;;14.70;3.30;;;6.50;99.90;;;;;;4999730;28;20278;-74
2021/04/26 01:30:09;;;;;;;15.13;3.33;;;6.50;99.90;;;;;;5003747;28;20187;-74
2021/04/26 01:33:15;;;;;;;11.10;3.10;;;6.50;99.90;;;;;;4970875;28;20583;-75
2021/04/26 01:35:47;;;;;;;14.77;3.37;;;6.30;99.90;;;;;;5003144;28;20228;-75
2021/04/26 01:38:18;;;;;;;10.73;3.37;;;6.20;99.90;;;;;;4971248;28;20197;-74
2021/04/26 01:40:48;;;;;;;9.60;3.30;;;6.10;99.90;;;;;;5001899;28;20651;-74
2021/04/26 01:43:18;;;;;;;12.80;3.67;;;6.20;99.90;;;;;;4970201;28;20265;-75
2021/04/26 01:45:46;;;;;;;17.23;3.50;;;6.10;99.90;;;;;;4997732;28;20193;-75
2021/04/26 01:48:15;;;;;;;13.10;3.60;;;5.90;99.90;;;;;;4971497;28;20268;-74
2021/04/26 01:50:45;;;;;;;13.73;3.30;;;5.90;99.90;;;;;;5000382;28;20242;-75
2021/04/26 01:53:11;;;;;;;16.73;3.53;;;5.80;99.90;;;;;;4970716;28;20815;-75
2021/04/26 01:55:38;;;;;;;13.17;3.80;;;5.80;99.90;;;;;;4970923;28;20224;-75
2021/04/26 01:58:05;;;;;;;12.63;3.50;;;6.00;99.90;;;;;;5001453;28;20188;-75
2021/04/26 02:00:37;;;;;;;13.07;3.40;;;6.00;99.90;;;;;;4970698;28;20168;-75
2021/04/26 02:03:10;;;;;;;14.07;3.50;;;6.00;99.90;;;;;;4997478;28;20216;-75
2021/04/26 02:05:59;;;;;;;12.67;3.37;;;5.90;99.90;;;;;;4971601;28;20190;-75
2021/04/26 02:08:28;;;;;;;11.47;3.10;;;6.00;99.90;;;;;;5000684;28;20210;-74
2021/04/26 02:10:55;;;;;;;10.57;3.67;;;5.90;99.90;;;;;;5001682;28;20326;-74
2021/04/26 02:13:25;;;;;;;15.03;3.87;;;5.80;99.90;;;;;;4970100;28;20260;-75
2021/04/26 02:15:56;;;;;;;14.57;3.47;;;5.70;99.90;;;;;;5001075;28;21687;-75
2021/04/26 02:18:22;;;;;;;16.97;3.43;;;5.80;99.90;;;;;;4983202;28;20183;-75
2021/04/26 02:20:49;;;;;;;14.90;4.07;;;5.90;99.90;;;;;;4969110;28;20520;-75
2021/04/26 02:23:15;;;;;;;15.63;3.50;;;5.90;99.90;;;;;;5001722;28;20274;-75
2021/04/26 02:25:42;;;;;;;13.87;3.80;;;5.90;99.90;;;;;;5001233;28;20187;-75
2021/04/26 02:28:09;;;;;;;14.40;4.07;;;6.00;99.90;;;;;;5002054;28;20185;-75
2021/04/26 02:30:35;;;;;;;10.50;3.30;;;5.90;99.90;;;;;;4971238;28;20233;-74
2021/04/26 02:33:04;;;;;;;13.77;3.80;;;6.00;99.90;;;;;;4970607;28;20210;-74
2021/04/26 02:35:46;;;;;;;17.10;4.10;;;5.90;99.90;;;;;;4970394;28;20229;-75
2021/04/26 02:38:25;;;;;;;8.57;3.37;;;5.90;99.90;;;;;;4968885;28;20190;-75
2021/04/26 02:40:56;;;;;;;14.70;3.97;;;5.90;99.90;;;;;;4970494;28;20183;-75
2021/04/26 02:43:24;;;;;;;19.30;3.87;;;6.00;99.90;;;;;;5000602;28;20609;-75
2021/04/26 02:45:52;;;;;;;11.47;3.93;;;6.00;99.90;;;;;;4970069;28;20194;-75
2021/04/26 02:48:19;;;;;;;12.10;3.30;;;6.00;99.90;;;;;;4970316;28;20190;-75
2021/04/26 02:50:56;;;;;;;15.47;4.00;;;6.00;99.90;;;;;;5001146;28;20314;-75
2021/04/26 02:53:25;;;;;;;14.20;3.50;;;5.80;99.90;;;;;;4970232;28;20177;-75
2021/04/26 02:55:56;;;;;;;15.40;3.80;;;5.80;99.90;;;;;;4999318;28;20215;-75
2021/04/26 02:58:24;;;;;;;15.10;4.10;;;5.70;99.90;;;;;;5001526;28;20249;-75
2021/04/26 03:00:51;;;;;;;11.20;3.57;;;5.70;99.90;;;;;;5000583;28;20935;-75
2021/04/26 03:03:40;;;;;;;13.27;3.90;;;5.80;99.90;;;;;;4968296;28;20199;-75
2021/04/26 03:06:09;;;;;;;12.20;3.57;;;5.60;99.90;;;;;;5001256;28;20185;-75
2021/04/26 03:08:48;;;;;;;13.77;3.83;;;5.60;99.90;;;;;;4984385;28;20557;-75
2021/04/26 03:11:16;;;;;;;15.67;3.60;;;5.50;99.90;;;;;;5000373;28;20184;-75
2021/04/26 03:13:42;;;;;;;15.13;3.67;;;5.50;99.90;;;;;;4970421;28;20185;-75
2021/04/26 03:16:09;;;;;;;16.10;4.07;;;5.50;99.90;;;;;;4970240;28;20609;-75
2021/04/26 03:18:39;;;;;;;14.88;3.97;;;5.50;99.90;;;;;;4998020;28;21050;-75
2021/04/26 03:21:11;;;;;;;10.40;3.47;;;5.50;99.90;;;;;;4969294;28;20203;-75
2021/04/26 03:23:43;;;;;;;10.43;4.10;;;5.40;99.90;;;;;;4982788;28;20307;-75
2021/04/26 03:26:10;;;;;;;12.37;3.37;;;5.30;99.90;;;;;;5000175;28;20179;-75
2021/04/26 03:28:40;;;;;;;14.30;3.60;;;5.30;99.90;;;;;;4985179;28;20253;-75
2021/04/26 03:31:06;;;;;;;15.07;4.13;;;5.30;99.90;;;;;;4999598;28;20535;-75
2021/04/26 03:33:43;;;;;;;14.60;4.47;;;5.30;99.90;;;;;;4969952;28;20207;-75
2021/04/26 03:36:11;;;;;;;16.17;3.80;;;5.30;99.90;;;;;;4969364;28;20330;-75
2021/04/26 03:38:37;;;;;;;12.83;3.90;;;5.30;99.90;;;;;;5001069;28;20330;-75
2021/04/26 03:41:04;;;;;;;16.63;3.80;;;5.30;99.90;;;;;;4986953;28;20547;-75
2021/04/26 03:43:31;;;;;;;11.57;3.93;;;5.30;99.90;;;;;;5000659;28;20196;-75
2021/04/26 03:46:04;;;;;;;13.30;4.20;;;5.30;99.90;;;;;;5003869;28;20245;-75
2021/04/26 03:48:52;;;;;;;13.63;4.10;;;5.20;99.90;;;;;;4980342;28;20577;-75
2021/04/26 03:51:40;;;;;;;11.30;3.93;;;5.30;99.90;;;;;;5008140;28;20308;-75
2021/04/26 03:54:41;;;;;;;11.27;3.87;;;5.20;99.90;;;;;;4960701;28;20305;-75
2021/04/26 03:57:07;;;;;;;11.00;3.60;;;5.20;99.90;;;;;;5004562;28;20233;-75
2021/04/26 03:59:33;;;;;;;11.83;3.97;;;5.00;99.90;;;;;;4972077;28;20223;-74
2021/04/26 04:02:00;;;;;;;15.73;4.30;;;5.10;99.90;;;;;;5005208;28;20207;-75
2021/04/26 04:04:29;;;;;;;11.10;3.70;;;5.10;99.90;;;;;;4987415;28;20184;-74
2021/04/26 04:07:17;;;;;;;15.53;4.40;;;5.20;99.90;;;;;;4972513;28;20241;-75
2021/04/26 04:10:07;;;;;;;13.67;3.93;;;5.30;99.90;;;;;;4972598;28;20233;-75
2021/04/26 04:13:11;;;;;;;13.93;4.13;;;5.20;99.90;;;;;;4972400;28;20217;-75
2021/04/26 04:15:38;;;;;;;11.77;3.70;;;5.20;99.90;;;;;;4981456;28;20674;-74
2021/04/26 04:18:04;;;;;;;15.23;3.80;;;5.30;99.90;;;;;;5002947;28;20194;-74
2021/04/26 04:20:35;;;;;;;12.40;4.00;;;5.40;99.90;;;;;;4972139;28;21642;-75
2021/04/26 04:23:01;;;;;;;15.27;3.97;;;5.40;99.90;;;;;;4972342;28;20672;-75
2021/04/26 04:25:27;;;;;;;14.33;4.13;;;5.40;99.90;;;;;;5002545;28;20183;-76
2021/04/26 04:27:55;;;;;;;15.53;3.97;;;5.30;99.90;;;;;;4987063;28;20546;-76
2021/04/26 04:30:22;;;;;;;14.13;4.00;;;5.40;99.90;;;;;;4972966;28;20684;-73
2021/04/26 04:32:59;;;;;;;15.30;4.33;;;5.40;99.90;;;;;;4970106;28;20225;-74
2021/04/26 04:35:44;;;;;;;12.07;4.07;;;5.40;99.90;;;;;;4969840;28;20732;-73
2021/04/26 04:38:35;;;;;;;12.70;3.80;;;5.40;99.90;;;;;;4984033;28;20254;-73
2021/04/26 04:41:20;;;;;;;13.43;4.33;;;5.40;99.90;;;;;;4971745;28;20698;-73
2021/04/26 04:43:45;;;;;;;17.13;3.83;;;5.40;99.90;;;;;;5003255;28;20187;-74
2021/04/26 04:46:11;;;;;;;13.13;4.13;;;5.50;99.90;;;;;;4971668;28;20193;-73
2021/04/26 04:48:46;;;;;;;18.77;4.50;;;5.40;99.90;;;;;;5002627;28;20669;-73
2021/04/26 04:51:16;;;;;;;14.63;4.37;;;5.50;99.90;;;;;;4972511;28;20588;-73
2021/04/26 04:53:50;;;;;;;12.47;4.37;;;5.60;99.90;;;;;;5003044;28;20189;-76
2021/04/26 04:56:18;;;;;;;17.37;3.97;;;5.80;99.90;;;;;;5002171;28;20218;-75
2021/04/26 04:58:46;;;;;;;17.93;4.57;;;6.00;99.90;;;;;;5002408;28;20286;-73
2021/04/26 05:01:12;;;;;;;15.93;4.27;;;6.40;99.90;;;;;;5003932;28;20272;-73
2021/04/26 05:03:56;;;;;;;13.50;3.77;;;7.10;99.90;;;;;;4997004;28;20306;-73
2021/04/26 05:06:40;;;;;;;12.37;4.27;;;7.70;99.90;;;;;;4999157;28;20854;-76
2021/04/26 05:09:24;;;;;;;14.70;3.73;;;8.60;99.90;;;;;;4971675;28;20300;-74
2021/04/26 05:12:08;;;;;;;14.73;4.23;;;9.40;99.90;;;;;;4972296;28;20200;-74
2021/04/26 05:14:49;;;;;;;13.37;3.70;;;9.80;99.90;;;;;;5000955;28;20830;-73
2021/04/26 05:17:16;;;;;;;13.80;3.23;;;9.80;99.90;;;;;;4970990;28;20195;-74
2021/04/26 05:19:42;;;;;;;10.53;3.67;;;9.60;99.90;;;;;;4971030;28;20650;-74
2021/04/26 05:22:08;;;;;;;11.87;3.50;;;9.70;99.90;;;;;;4970876;28;20205;-74
2021/04/26 05:24:36;;;;;;;12.27;3.70;;;9.70;99.90;;;;;;4972697;28;20262;-74
2021/04/26 05:27:03;;;;;;;8.87;3.50;;;9.90;99.90;;;;;;4969915;28;20194;-74
2021/04/26 05:29:29;;;;;;;13.80;3.90;;;10.10;99.90;;;;;;5003226;28;20191;-73
2021/04/26 05:31:57;;;;;;;9.97;3.63;;;10.00;99.90;;;;;;5002069;28;20192;-74
2021/04/26 05:34:23;;;;;;;14.27;3.73;;;10.10;99.90;;;;;;4970969;28;20227;-73
2021/04/26 05:36:50;;;;;;;13.33;3.80;;;10.00;99.90;;;;;;4970474;28;20272;-74
2021/04/26 05:39:16;;;;;;;10.67;3.33;;;10.30;99.90;;;;;;5001059;28;20192;-75
2021/04/26 05:41:44;;;;;;;12.33;3.57;;;11.00;99.90;;;;;;4972130;28;20598;-76
2021/04/26 05:44:10;;;;;;;13.10;3.37;;;12.30;99.90;;;;;;4971027;28;20187;-76
2021/04/26 05:47:00;;;;;;;12.07;3.40;;;12.60;99.90;;;;;;4971880;28;20249;-76
2021/04/26 05:49:26;;;;;;;13.70;3.20;;;12.40;99.90;;;;;;4970086;28;20218;-76
2021/04/26 05:51:52;;;;;;;11.10;3.23;;;13.00;99.90;;;;;;4971468;28;20175;-76
2021/04/26 05:54:17;;;;;;;13.77;3.30;;;14.20;99.90;;;;;;4972259;28;20191;-76
2021/04/26 05:56:43;;;;;;;10.63;3.07;;;14.90;99.50;;;;;;4970904;28;20200;-77
2021/04/26 05:59:09;;;;;;;12.10;3.10;;;15.60;97.10;;;;;;4968941;28;20177;-77
2021/04/26 06:01:35;;;;;;;13.67;3.33;;;16.00;95.30;;;;;;4971939;28;20371;-78
2021/04/26 06:04:00;;;;;;;13.37;3.30;;;16.30;93.90;;;;;;4972161;28;20189;-78
2021/04/26 06:06:29;;;;;;;13.57;3.47;;;16.50;92.40;;;;;;5003150;28;20612;-77
2021/04/26 06:08:55;;;;;;;13.47;3.67;;;16.10;92.70;;;;;;5002499;28;20740;-78
2021/04/26 06:11:20;;;;;;;7.57;2.60;;;16.10;92.10;;;;;;5003758;28;20199;-77
2021/04/26 06:13:46;;;;;;;10.80;3.37;;;16.00;91.90;;;;;;4986511;28;20192;-77
2021/04/26 06:16:12;;;;;;;10.00;3.20;;;16.00;92.00;;;;;;4969883;28;20217;-78
2021/04/26 06:18:37;;;;;;;10.10;3.17;;;15.80;91.70;;;;;;4972655;28;20631;-77
2021/04/26 06:21:03;;;;;;;10.33;3.37;;;15.80;91.60;;;;;;4972199;28;20196;-78
2021/04/26 06:23:29;;;;;;;10.00;3.30;;;16.00;90.90;;;;;;4986686;28;20193;-77
2021/04/26 06:25:54;;;;;;;9.03;3.30;;;15.70;91.00;;;;;;4985079;28;20187;-78
2021/04/26 06:28:20;;;;;;;13.27;3.83;;;15.80;91.30;;;;;;4986985;28;20550;-78
2021/04/26 06:30:46;;;;;;;12.60;3.47;;;16.00;91.10;;;;;;5004927;28;20197;-77
2021/04/26 06:33:16;;;;;;;10.63;3.40;;;16.10;90.10;;;;;;4970661;28;20197;-77
2021/04/26 06:35:46;;;;;;;10.30;3.70;;;15.70;89.70;;;;;;4970116;28;20696;-77
2021/04/26 06:38:12;;;;;;;12.13;3.87;;;15.80;90.40;;;;;;4970269;28;20725;-78
2021/04/26 06:40:39;;;;;;;9.97;3.27;;;16.30;89.00;;;;;;4970365;28;20189;-78
2021/04/26 06:43:05;;;;;;;12.37;3.47;;;16.10;88.10;;;;;;4971962;28;20654;-77
2021/04/26 06:45:31;;;;;;;13.17;3.77;;;15.70;87.90;;;;;;4999412;28;20198;-78
2021/04/26 06:47:57;;;;;;;13.53;5.60;;;15.50;89.00;;;;;;4972104;28;20216;-78
2021/04/26 06:50:23;;;;;;;11.87;3.40;;;15.90;88.30;;;;;;4986494;28;20194;-76
2021/04/26 06:52:51;;;;;;;11.23;4.17;;;15.80;87.20;;;;;;4984104;28;20195;-75
2021/04/26 06:55:17;;;;;;;13.07;3.80;;;15.90;87.60;;;;;;4999726;28;20205;-76
2021/04/26 06:57:43;;;;;;;12.43;4.20;;;16.70;84.20;;;;;;4969568;28;20194;-76
2021/04/26 07:00:10;;;;;;;13.00;3.67;;;16.30;83.90;;;;;;4969723;28;20190;-76
2021/04/26 07:02:36;;;;;;;14.83;3.93;;;16.90;83.60;;;;;;4983256;28;20284;-76
2021/04/26 07:05:03;;;;;;;8.90;3.63;;;17.40;82.10;;;;;;4969737;28;20234;-76
2021/04/26 07:07:29;;;;;;;10.83;3.60;;;18.40;78.80;;;;;;4970346;28;20206;-76
2021/04/26 07:09:55;;;;;;;10.40;3.33;;;20.40;76.70;;;;;;4969177;28;20217;-76
2021/04/26 07:12:21;;;;;;;13.40;3.80;;;20.90;72.30;;;;;;4970078;28;20195;-76
2021/04/26 07:14:47;;;;;;;10.60;3.90;;;21.10;69.90;;;;;;4969430;28;20322;-76
2021/04/26 07:17:13;;;;;;;10.33;3.97;;;21.00;67.80;;;;;;4969414;28;20652;-76
2021/04/26 07:19:39;;;;;;;13.73;3.43;;;20.80;65.10;;;;;;4986212;28;20274;-76
2021/04/26 07:22:05;;;;;;;11.70;4.00;;;20.60;65.80;;;;;;5003658;28;20199;-75
2021/04/26 07:24:30;;;;;;;9.37;3.67;;;20.00;67.30;;;;;;4975108;28;20277;-75
2021/04/26 07:26:56;;;;;;;13.27;4.03;;;19.90;67.40;;;;;;5004449;28;20279;-75
2021/04/26 07:29:22;;;;;;;11.97;4.20;;;20.20;67.80;;;;;;4974627;28;20186;-76
2021/04/26 07:31:48;;;;;;;9.53;3.50;;;20.40;65.20;;;;;;4973259;28;20238;-76
2021/04/26 07:34:13;;;;;;;12.40;4.17;;;20.40;65.50;;;;;;4972554;28;20224;-76
2021/04/26 07:36:40;;;;;;;13.03;4.23;;;21.30;64.40;;;;;;4973928;28;20222;-76
2021/04/26 07:39:07;;;;;;;13.50;4.20;;;20.40;63.90;;;;;;4971921;28;20244;-76
2021/04/26 07:41:33;;;;;;;11.67;4.23;;;20.40;64.10;;;;;;4973001;28;20180;-76
2021/04/26 07:43:58;;;;;;;12.50;4.20;;;20.10;65.10;;;;;;4971210;28;20181;-76
2021/04/26 07:46:24;;;;;;;14.37;4.17;;;20.00;62.90;;;;;;4989089;28;20189;-76
2021/04/26 07:48:50;;;;;;;12.37;4.10;;;20.50;65.60;;;;;;4972961;28;20269;-76
2021/04/26 07:51:15;;;;;;;9.73;4.10;;;21.10;61.30;;;;;;4970820;28;20183;-76
2021/04/26 07:53:41;;;;;;;15.77;4.60;;;21.30;61.80;;;;;;4972977;28;20217;-76
2021/04/26 07:56:07;;;;;;;11.53;4.37;;;21.00;61.30;;;;;;4972813;28;20758;-76
2021/04/26 07:58:33;;;;;;;12.97;4.30;;;22.40;60.90;;;;;;4976606;28;20182;-76
2021/04/26 08:00:59;;;;;;;12.30;4.30;;;22.40;57.80;;;;;;5003103;28;20553;-76
2021/04/26 08:03:25;;;;;;;13.90;4.20;;;21.80;59.10;;;;;;4974776;28;20197;-76
2021/04/26 08:05:52;;;;;;;13.80;4.40;;;21.60;58.20;;;;;;4972939;28;20289;-76
2021/04/26 08:08:18;;;;;;;10.00;4.17;;;21.30;58.00;;;;;;4973402;28;20908;-76
2021/04/26 08:10:43;;;;;;;11.83;4.30;;;20.40;59.40;;;;;;5006161;28;20253;-76
2021/04/26 08:13:09;;;;;;;12.50;4.43;;;21.10;59.20;;;;;;4973553;28;20234;-76
2021/04/26 08:15:35;;;;;;;14.07;4.20;;;21.20;59.70;;;;;;4973567;28;20580;-76
2021/04/26 08:18:01;;;;;;;9.43;4.03;;;21.10;58.20;;;;;;4971821;28;20198;-76
2021/04/26 08:20:26;;;;;;;12.23;4.07;;;21.00;57.60;;;;;;4972809;28;20191;-76
2021/04/26 08:22:52;;;;;;;11.03;4.73;;;20.50;58.70;;;;;;4971703;28;20188;-76
2021/04/26 08:25:18;;;;;;;11.53;4.70;;;20.30;60.00;;;;;;4973260;28;20598;-76
2021/04/26 08:27:44;;;;;;;11.93;4.53;;;20.20;57.70;;;;;;4986629;28;20289;-76
2021/04/26 08:30:11;;;;;;;11.13;4.03;;;20.20;60.40;;;;;;5003901;28;20661;-76
2021/04/26 08:32:37;;;;;;;14.17;4.00;;;19.70;60.00;;;;;;4971115;28;20692;-76
2021/04/26 08:35:04;;;;;;;10.57;4.07;;;20.10;59.80;;;;;;4972278;28;20231;-77
2021/04/26 08:37:30;;;;;;;12.10;4.33;;;20.20;58.20;;;;;;4976525;28;20184;-77
2021/04/26 08:39:56;;;;;;;10.97;3.90;;;21.30;58.30;;;;;;5001496;28;20194;-77
2021/04/26 08:42:21;;;;;;;11.67;3.97;;;21.80;57.10;;;;;;4973725;28;20690;-76
2021/04/26 08:44:48;;;;;;;12.37;4.63;;;21.40;56.40;;;;;;4970370;28;20212;-76
2021/04/26 08:47:14;;;;;;;10.93;4.10;;;21.10;55.30;;;;;;4972774;28;20645;-77
2021/04/26 08:49:40;;;;;;;11.00;4.77;;;21.30;56.20;;;;;;4972152;28;20192;-76
2021/04/26 08:52:08;;;;;;;12.23;4.40;;;21.20;55.60;;;;;;4970097;28;20200;-76
2021/04/26 08:54:33;;;;;;;10.33;3.77;;;21.00;55.20;;;;;;4972888;28;20194;-77
2021/04/26 08:56:59;;;;;;;10.43;4.30;;;21.50;56.10;;;;;;4973520;28;20200;-77
2021/04/26 08:59:25;;;;;;;9.50;4.17;;;21.70;54.60;;;;;;4971679;28;20221;-76
2021/04/26 09:02:10;;;;;;;9.80;4.00;;;21.30;54.30;;;;;;5002934;28;20313;-77
2021/04/26 09:04:44;;;;;;;11.40;4.03;;;21.20;54.80;;;;;;5003806;28;20203;-77
2021/04/26 09:07:12;;;;;;;11.43;3.50;;;21.90;53.10;;;;;;4972447;28;20307;-77
2021/04/26 09:09:47;;;;;;;11.27;3.97;;;20.90;52.40;;;;;;4972436;28;20196;-76
2021/04/26 09:12:25;;;;;;;10.57;3.70;;;20.90;52.70;;;;;;4972468;28;20233;-76
2021/04/26 09:14:59;;;;;;;9.87;3.57;;;20.90;52.70;;;;;;4971305;28;20227;-75
2021/04/26 09:17:42;;;;;;;13.70;4.10;;;20.40;52.50;;;;;;5002935;28;20191;-76
2021/04/26 09:20:20;;;;;;;10.20;3.90;;;20.50;52.60;;;;;;4972985;28;20540;-76
2021/04/26 09:22:51;;;;;;;8.17;3.67;;;20.50;53.50;;;;;;5004261;28;20204;-76
2021/04/26 09:25:27;;;;;;;8.67;4.07;;;19.80;54.00;;;;;;4989611;28;20616;-75
2021/04/26 09:28:08;;;;;;;9.67;3.67;;;19.50;53.60;;;;;;4971312;28;20271;-76
2021/04/26 09:30:34;;;;;;;9.03;3.63;;;20.00;55.80;;;;;;4971394;28;20194;-76
2021/04/26 09:33:36;;;;;;;8.50;3.40;;;19.90;55.00;;;;;;5003665;28;20198;-76
2021/04/26 09:36:18;;;;;;;9.80;3.27;;;21.90;53.60;;;;;;4971700;28;20317;-76
2021/04/26 09:38:47;;;;;;;8.00;3.33;;;22.60;49.00;;;;;;5002738;28;20581;-75
2021/04/26 09:41:24;;;;;;;9.10;3.43;;;21.30;50.00;;;;;;4971447;28;20708;-75
2021/04/26 09:43:52;;;;;;;12.20;3.77;;;20.60;51.30;;;;;;5002140;28;20237;-76
2021/04/26 09:46:21;;;;;;;9.00;3.90;;;19.80;52.90;;;;;;4971565;28;20187;-75
2021/04/26 09:48:47;;;;;;;10.70;3.90;;;19.70;52.20;;;;;;4970127;28;20221;-75
2021/04/26 09:51:20;;;;;;;13.03;4.03;;;20.60;52.90;;;;;;4987296;28;20648;-76
2021/04/26 09:53:52;;;;;;;9.63;3.80;;;20.30;53.70;;;;;;4969440;28;20198;-76
2021/04/26 09:56:30;;;;;;;11.57;4.23;;;21.20;53.40;;;;;;4988040;28;20208;-75
2021/04/26 09:59:02;;;;;;;8.60;3.70;;;21.40;52.20;;;;;;5001749;28;20217;-76
2021/04/26 10:01:29;;;;;;;9.03;3.97;;;21.80;51.90;;;;;;4970653;28;20190;-75
2021/04/26 10:03:55;;;;;;;10.27;3.77;;;21.20;51.60;;;;;;4969862;28;20188;-75
2021/04/26 10:06:23;;;;;;;10.50;3.73;;;20.50;51.30;;;;;;4970682;28;20188;-76
2021/04/26 10:08:51;;;;;;;8.10;3.53;;;21.20;52.10;;;;;;4971586;28;20189;-75
2021/04/26 10:11:18;;;;;;;9.93;4.20;;;21.60;51.90;;;;;;4984913;28;20202;-78
2021/04/26 10:13:45;;;;;;;9.97;3.73;;;21.20;50.20;;;;;;4971914;28;20191;-74
2021/04/26 10:16:21;;;;;;;11.50;4.20;;;20.50;50.10;;;;;;4970544;28;20215;-75
2021/04/26 10:18:47;;;;;;;8.87;3.63;;;20.50;52.00;;;;;;4970804;28;20243;-75
2021/04/26 10:21:19;;;;;;;8.17;3.80;;;21.00;52.70;;;;;;4970355;28;20196;-75
2021/04/26 10:23:49;;;;;;;8.90;3.30;;;21.20;50.30;;;;;;4972051;28;20646;-75
2021/04/26 10:26:42;;;;;;;7.90;3.30;;;20.90;51.10;;;;;;4999660;28;20196;-75
2021/04/26 10:29:14;;;;;;;10.20;3.60;;;20.70;51.10;;;;;;4969558;28;20202;-76
2021/04/26 10:32:01;;;;;;;9.23;4.00;;;20.30;51.80;;;;;;4969371;28;20183;-76
2021/04/26 10:34:32;;;;;;;7.70;3.50;;;20.20;50.30;;;;;;5001091;28;20232;-76
2021/04/26 10:37:01;;;;;;;8.17;3.40;;;21.20;50.50;;;;;;5002536;28;20191;-76
2021/04/26 10:39:28;;;;;;;12.23;3.43;;;22.00;49.70;;;;;;4971177;28;20188;-76
2021/04/26 10:42:06;;;;;;;12.23;3.80;;;21.20;49.40;;;;;;4975303;28;20181;-76
2021/04/26 10:44:41;;;;;;;10.17;3.40;;;20.60;50.30;;;;;;4970756;28;20194;-75
2021/04/26 10:47:31;;;;;;;8.43;3.40;;;21.10;51.30;;;;;;4970872;28;20209;-76
2021/04/26 10:49:59;;;;;;;7.43;3.40;;;21.20;50.80;;;;;;4969803;28;20208;-75
2021/04/26 10:52:33;;;;;;;10.03;3.20;;;21.00;48.90;;;;;;4971611;28;20673;-75
2021/04/26 10:55:05;;;;;;;7.27;3.37;;;20.40;49.40;;;;;;4974837;28;20690;-75
2021/04/26 10:57:41;;;;;;;7.87;3.40;;;19.90;49.80;;;;;;5006448;28;20183;-75
2021/04/26 11:00:22;;;;;;;9.83;3.63;;;20.50;50.70;;;;;;4974867;28;20177;-75
2021/04/26 11:03:07;;;;;;;9.23;3.90;;;21.80;48.60;;;;;;5004884;28;20182;-75
2021/04/26 11:05:39;;;;;;;8.63;3.33;;;21.60;47.10;;;;;;5006364;28;20721;-75
2021/04/26 11:08:13;;;;;;;10.53;3.83;;;21.30;48.10;;;;;;4973931;28;20185;-75
2021/04/26 11:10:45;;;;;;;6.60;3.13;;;21.40;49.20;;;;;;4973912;28;20200;-75
2021/04/26 11:16:20;;;;;;;9.17;3.70;;;21.70;49.30;;;;;;5005130;28;20232;-77
2021/04/26 11:18:57;;;;;;;9.47;3.60;;;21.30;49.40;;;;;;4986011;28;20181;-77
2021/04/26 11:21:42;;;;;;;9.73;3.60;;;21.50;48.90;;;;;;4974040;28;20191;-76
2021/04/26 11:24:08;;;;;;;7.87;3.50;;;21.20;48.50;;;;;;5005523;28;20564;-76
2021/04/26 11:26:34;;;;;;;9.13;3.33;;;20.50;49.40;;;;;;4987339;28;20555;-76
2021/04/26 11:29:08;;;;;;;7.67;3.23;;;20.40;49.20;;;;;;4975839;28;20226;-76
2021/04/26 11:31:40;;;;;;;7.23;3.40;;;20.50;49.30;;;;;;4974146;28;20203;-76
2021/04/26 11:34:26;;;;;;;8.07;3.63;;;20.60;49.10;;;;;;4973848;28;20211;-76
2021/04/26 11:37:02;;;;;;;7.50;3.90;;;20.90;49.60;;;;;;5003170;28;20228;-76
2021/04/26 11:39:30;;;;;;;8.50;3.80;;;21.30;50.70;;;;;;5005183;28;20259;-76
2021/04/26 11:41:55;;;;;;;12.03;3.83;;;21.50;48.70;;;;;;4988213;28;20555;-76
2021/04/26 11:44:29;;;;;;;7.63;3.60;;;21.20;48.80;;;;;;4973434;28;20201;-76
2021/04/26 11:47:15;;;;;;;10.67;4.10;;;21.10;48.30;;;;;;4972063;28;20187;-76
2021/04/26 11:49:43;;;;;;;9.00;3.60;;;22.30;46.10;;;;;;5003828;28;20196;-76
2021/04/26 11:52:15;;;;;;;7.67;3.87;;;21.40;47.20;;;;;;5005564;28;20644;-76
2021/04/26 11:54:44;;;;;;;10.00;3.90;;;21.40;46.90;;;;;;4971490;28;20216;-76
2021/04/26 11:57:16;;;;;;;11.33;3.77;;;20.70;47.70;;;;;;4974645;28;20192;-76
2021/04/26 12:00:00;;;;;;;12.53;3.60;;;20.10;48.30;;;;;;4972839;28;20278;-75
2021/04/26 12:02:36;;;;;;;8.77;3.53;;;20.00;50.20;;;;;;4973947;28;20189;-76
2021/04/26 12:05:24;;;;;;;9.53;3.17;;;19.60;48.60;;;;;;4971666;28;20274;-76
2021/04/26 12:07:52;;;;;;;10.83;3.90;;;19.40;47.90;;;;;;5004622;28;20198;-76
2021/04/26 12:10:26;;;;;;;9.57;3.40;;;19.60;49.10;;;;;;5004914;28;20280;-76
2021/04/26 12:12:57;;;;;;;7.93;3.37;;;19.40;49.10;;;;;;4972897;28;20614;-77
2021/04/26 12:15:25;;;;;;;8.93;3.53;;;19.30;49.00;;;;;;5004714;28;20211;-76
2021/04/26 12:17:55;;;;;;;7.63;3.80;;;19.80;49.40;;;;;;4972364;28;20233;-76
2021/04/26 12:20:25;;;;;;;9.37;3.70;;;20.20;48.30;;;;;;5005332;28;20198;-76
2021/04/26 12:23:01;;;;;;;10.70;4.03;;;20.00;49.60;;;;;;5001187;28;20191;-76
2021/04/26 12:25:41;;;;;;;7.63;3.43;;;19.40;50.50;;;;;;4972782;28;20198;-76
2021/04/26 12:28:09;;;;;;;7.47;3.50;;;18.90;49.00;;;;;;4971100;28;20222;-76
2021/04/26 12:30:40;;;;;;;8.40;3.60;;;18.30;53.00;;;;;;4973364;28;20207;-76
2021/04/26 12:33:30;;;;;;;7.27;3.73;;;18.10;52.90;;;;;;4972996;28;20672;-76
2021/04/26 12:35:57;;;;;;;11.80;4.10;;;17.70;51.60;;;;;;5002295;28;20232;-76
2021/04/26 12:38:24;;;;;;;6.77;3.33;;;17.40;51.80;;;;;;4973122;28;20187;-76
2021/04/26 12:40:50;;;;;;;9.30;3.80;;;17.30;53.60;;;;;;4971618;28;20187;-76
2021/04/26 12:43:16;;;;;;;8.80;3.70;;;17.10;52.40;;;;;;4972275;28;20187;-76
2021/04/26 12:45:45;;;;;;;8.87;4.07;;;16.90;52.90;;;;;;4972183;28;20218;-76
2021/04/26 12:48:13;;;;;;;7.97;3.53;;;16.70;53.50;;;;;;4972292;28;20191;-76
2021/04/26 12:50:42;;;;;;;10.50;3.47;;;16.90;54.40;;;;;;4988014;28;20181;-76
2021/04/26 12:53:22;;;;;;;8.23;3.67;;;17.00;55.70;;;;;;5003900;28;20217;-76
2021/04/26 12:55:54;;;;;;;10.33;4.00;;;16.90;52.40;;;;;;4974372;28;20200;-76
2021/04/26 12:58:24;;;;;;;9.47;3.70;;;16.90;54.80;;;;;;4972400;28;20218;-77
2021/04/26 13:00:53;;;;;;;9.90;3.63;;;16.90;55.80;;;;;;4971701;28;20662;-76
2021/04/26 13:03:31;;;;;;;12.53;4.00;;;16.80;55.10;;;;;;4970211;28;20198;-76
2021/04/26 13:06:02;;;;;;;9.13;3.67;;;16.80;56.60;;;;;;4972336;28;20178;-76